Hidden Valley, Valles Caldera, New Mexico Weather observations

Data are for 10 minute period ending at time listed.
 Day   Time   Solar   Ave.   Ave.  Ave.  Vector  Max.   Baro.   Total    
  of    of     Rad.   Air    Rel.  Wind   Wind   Wind  Press.  Precip.   
Year   Day            Temp.  Hum.  Speed  Dir.   Gust                    
2016   (MST)  Kw/m2    F      %     mph   deg.    mph    mb.     in.     
-------------------------------------------------------------------------
  41   21:30   0.00    5.6    83    0.5   170     1.2   751.7    0.00 
  41   21:40   0.00    5.2    84    0.5    80     1.9   751.7    0.00 
  41   21:50   0.00    4.6    82    0.4    33     1.5   751.7    0.00 
  41   22:00   0.00    4.1    86    0.5   140     1.5   751.7    0.00 
  41   22:10   0.00    7.9    84    1.1    15     3.3   751.7    0.00 
  41   22:20   0.00    7.3    81    0.7   106     2.4   751.7    0.00 
  41   22:30   0.00    8.6    80    0.6   294     1.4   751.7    0.00 
  41   22:40   0.00   10.2    79    0.5   121     1.4   751.7    0.00 
  41   22:50   0.00   11.8    77    0.6   194     1.6   751.8    0.00 
  41   23:00   0.00   14.8    72    1.2   183     2.1   751.7    0.00 
  41   23:10   0.00   16.7    67    1.0   204     2.7   751.7    0.00 
  41   23:20   0.00   19.4    62    1.8   198     3.5   751.6    0.00 
  41   23:30   0.00   20.1    60    1.4   210     3.0   751.5    0.00 
  41   23:40   0.00   18.8    60    0.8   260     2.2   751.5    0.00 
  41   23:50   0.00   11.2    67    1.0    19     2.1   751.6    0.00 
  42    0:00   0.00    6.7    74    0.6    17     1.9   751.6    0.00 
  42    0:10   0.00    6.0    75    0.9    32     1.8   751.6    0.00 
  42    0:20   0.00    3.5    75    0.5    30     2.5   751.6    0.00 
  42    0:30   0.00    2.6    79    0.6    20     1.6   751.5    0.00 
  42    0:40   0.00    2.8    78    0.7    34     1.7   751.5    0.00 
  42    0:50   0.00    1.6    79    0.4    83     1.1   751.5    0.00 
  42    1:00   0.00    0.0    76    0.3    66     1.2   751.6    0.00 
  42    1:10   0.00    0.5    83    0.8   134     1.8   751.5    0.00 
  42    1:20   0.00    4.0    84    1.2   130     3.0   751.5    0.00 
  42    1:30   0.00    3.6    78    0.8    55     2.3   751.6    0.00 
  42    1:40   0.00    1.7    80    0.9   275     2.0   751.6    0.00 
  42    1:50   0.00    1.5    80    0.6   348     2.3   751.7    0.00 
  42    2:00   0.00   -0.5    79    0.2   151     0.8   751.6    0.00 
  42    2:10   0.00   -2.1    82    0.8    25     2.0   751.7    0.00 
  42    2:20   0.00   -3.6    78    0.5   359     1.4   751.7    0.00 
  42    2:30   0.00   -4.9    80    1.0    56     2.4   751.7    0.00 
  42    2:40   0.00   -7.3    79    0.6   303     2.3   751.7    0.00 
  42    2:50   0.00   -5.0    81    0.5   246     1.8   751.6    0.00 
  42    3:00   0.00   -5.2    82    0.6   136     1.5   751.6    0.00 
  42    3:10   0.00   -5.3    80    0.5    50     1.5   751.6    0.00 
  42    3:20   0.00   -7.1    79    0.3   359     1.2   751.6    0.00 
  42    3:30   0.00   -8.0    81    0.0   175     0.6   751.5    0.00 
  42    3:40   0.00   -8.6    82    0.1    99     0.4   751.4    0.00 
  42    3:50   0.00   -8.2    82    0.0   182     0.4   751.4    0.00 
  42    4:00   0.00   -9.4    81    0.3   352     0.8   751.3    0.00 
  42    4:10   0.00  -10.6    80    0.5   344     1.3   751.4    0.00 
  42    4:20   0.00  -10.4    84    0.3   355     1.1   751.5    0.00 
  42    4:30   0.00  -11.7    79    0.7    36     1.4   751.7    0.00 
  42    4:40   0.00  -10.7    84    0.5   292     1.1   751.8    0.00 
  42    4:50   0.00  -10.6    83    0.5   170     1.1   751.8    0.00 
  42    5:00   0.00  -11.3    81    0.1   152     0.6   751.8    0.00 
  42    5:10   0.00  -12.4    79    0.9    17     1.4   751.8    0.00 
  42    5:20   0.00  -14.6    80    0.4    15     1.5   752.0    0.00 
  42    5:30   0.00  -13.5    83    0.2   176     0.9   751.9    0.00 
  42    5:40   0.00  -13.5    81    0.3   338     0.9   752.0    0.00 
  42    5:50   0.00  -13.3    82    0.1   340     0.5   752.0    0.00 
  42    6:00   0.00  -14.3    78    0.0   340     0.2   752.0    0.00 
  42    6:10   0.00  -14.8    80    0.1   340     0.7   752.0    0.00 
  42    6:20   0.00  -14.6    81    0.5   358     1.1   752.1    0.00 
  42    6:30   0.00  -15.1    80    0.0    92     0.4   752.1    0.00 
  42    6:40   0.00  -16.0    78    0.0     0     0.0   752.2    0.00 
  42    6:50   0.00  -16.1    79    0.0     0     0.0   752.1    0.00 
  42    7:00   0.00  -17.4    77    0.5    34     1.2   752.1    0.00 
  42    7:10   0.01  -17.3    79    0.2   329     0.7   752.3    0.00 
  42    7:20   0.01  -15.6    81    0.0   198     0.7   752.4    0.00 
  42    7:30   0.01  -16.0    78    0.2   195     0.8   752.3    0.00 
  42    7:40   0.02  -16.5    76    0.0     0     0.0   752.4    0.00 
  42    7:50   0.08  -15.8    77    0.0   195     0.3   752.5    0.00 
  42    8:00   0.18  -11.4    72    0.1   195     0.6   752.5    0.00 
  42    8:10   0.21  -11.1    64    0.6   338     1.2   752.5    0.00 
  42    8:20   0.24   -8.8    63    0.4     8     0.9   752.5    0.00 
  42    8:30   0.27   -3.8    57    0.0     4     0.4   752.5    0.00 
  42    8:40   0.31   -2.4    49    0.1   122     0.6   752.5    0.00 
  42    8:50   0.35    0.4    46    0.0     0     0.0   752.6    0.00 
  42    9:00   0.39    0.3    47    0.0   121     0.3   752.6    0.00 
  42    9:10   0.42    2.9    46    0.2    31     0.7   752.7    0.00 
  42    9:20   0.45    9.6    39    0.0     0     0.0   752.7    0.00 
  42    9:30   0.48    9.0    39    0.1   329     0.5   752.6    0.00 
  42    9:40   0.51   10.3    41    0.0   248     0.3   752.6    0.00 
  42    9:50   0.54   13.8    36    0.0   327     0.8   752.6    0.00 
  42   10:00   0.56   11.9    43    0.3   327     1.1   752.6    0.00 
  42   10:10   0.59   15.7    40    0.1   243     0.5   752.6    0.00 
  42   10:20   0.61   18.0    37    0.3    47     0.8   752.6    0.00 
  42   10:30   0.63   19.6    38    0.1    30     0.6   752.5    0.00 
  42   10:40   0.65   22.2    34    0.3    12     1.0   752.5    0.00 
  42   10:50   0.67   24.9    33    0.1     7     0.7   752.5    0.00 
  42   11:00   0.69   22.0    39    0.4   336     0.9   752.3    0.00 
  42   11:10   0.70   23.6    39    0.4    66     1.3   752.3    0.00 
  42   11:20   0.71   23.2    44    0.3    30     1.0   752.2    0.00 
  42   11:30   0.73   24.0    43    0.5   329     0.9   752.0    0.00 
  42   11:40   0.73   26.0    40    0.6     1     1.4   751.9    0.00 
  42   11:50   0.74   29.1    38    0.5    13     1.9   751.8    0.00 
  42   12:00   0.75   31.0    38    0.4    60     1.3   751.8    0.00 
  42   12:10   0.75   28.5    43    0.7    44     1.6   751.6    0.00 
  42   12:20   0.75   31.5    40    0.4    41     1.9   751.5    0.00 
  42   12:30   100.00  99999.0   99999  99999.0   99999   99999.0   99999.0   99999.00 
  42   12:40   100.00  99999.0   99999  99999.0   99999   99999.0   99999.0   99999.00 
  42   12:50   100.00  99999.0   99999  99999.0   99999   99999.0   99999.0   99999.00 
  42   13:00   100.00  99999.0   99999  99999.0   99999   99999.0   99999.0   99999.00 
  42   13:10   100.00  99999.0   99999  99999.0   99999   99999.0   99999.0   99999.00 
  42   13:20   100.00  99999.0   99999  99999.0   99999   99999.0   99999.0   99999.00 
  42   13:30   0.71   36.4    47    0.7     3     1.8   750.8    0.00 
  42   13:40   0.70   37.8    46    0.5    52     1.2   750.7    0.00 
  42   13:50   0.68   42.7    42    0.2   162     1.0   750.6    0.00 
  42   14:00   0.67   40.1    45    0.6   154     1.3   750.5    0.00 
  42   14:10   0.65   41.5    39    0.8    55     2.2   750.4    0.00 
  42   14:20   0.63   46.5    28    1.1    42     3.9   750.4    0.00 
  42   14:30   0.60   49.6    18    4.0   353     5.3   750.3    0.00 
  42   14:40   0.58   50.0    17    4.1   357     5.9   750.2    0.00 
  42   14:50   0.56   48.8    22    3.5     1     5.3   750.2    0.00 
  42   15:00   0.53   49.0    22    2.8     7     3.7   750.1    0.00 
  42   15:10   0.50   48.6    24    2.4     3     3.5   750.1    0.00 
  42   15:20   0.47   48.2    24    3.1   358     5.0   750.1    0.00 
  42   15:30   0.44   50.1    23    0.9   257     3.8   750.2    0.00 
  42   15:40   0.41   49.5    24    1.4   112     3.3   750.2    0.00 
  42   15:50   0.38   47.1    29    1.2   100     2.0   750.3    0.00 
  42   16:00   0.35   48.7    27    0.3    24     1.4   750.4    0.00 
  42   16:10   0.31   47.7    29    0.3   306     1.5   750.5    0.00 
  42   16:20   0.27   46.4    24    3.6   344     5.2   750.5    0.00 
  42   16:30   0.24   46.1    20    4.6   342     6.5   750.6    0.00 
  42   16:40   0.22   44.9    22    4.5   345     5.7   750.7    0.00 
  42   16:50   0.17   43.9    22    4.2   341     5.8   750.9    0.00 
  42   17:00   0.05   42.4    23    2.8   332     3.8   751.0    0.00 
  42   17:10   0.03   40.3    25    2.0   330     3.7   751.1    0.00 
  42   17:20   0.02   40.2    24    1.8   326     3.3   751.1    0.00 
  42   17:30   0.02   39.3    26    2.3   337     3.7   751.2    0.00 
  42   17:40   0.01   38.0    27    1.4   348     2.7   751.3    0.00 
  42   17:50   0.01   35.9    31    1.1    20     2.1   751.3    0.00 
  42   18:00   0.00   34.5    34    0.6   333     1.5   751.4    0.00 
  42   18:10   0.00   30.7    40    0.4   112     1.1   751.4    0.00 
  42   18:20   0.00   27.9    46    0.2   115     0.7   751.5    0.00 
  42   18:30   0.00   25.8    51    0.5   167     1.7   751.5    0.00 
  42   18:40   0.00   24.9    53    1.4   146     2.5   751.6    0.00 
  42   18:50   0.00   28.7    49    2.1   175     3.1   751.7    0.00 
  42   19:00   0.00   28.3    49    1.7   185     2.4   751.8    0.00 
  42   19:10   0.00   28.8    47    1.5   171     2.3   751.9    0.00 
  42   19:20   0.00   27.3    48    0.8   153     2.2   751.9    0.00 
  42   19:30   0.00   24.8    54    1.0   174     1.8   751.9    0.00 
  42   19:40   0.00   22.1    58    0.6   170     1.6   752.1    0.00 
  42   19:50   0.00   19.5    60    1.0    56     2.0   752.1    0.00 
  42   20:00   0.00   19.3    63    0.5   254     1.7   752.2    0.00 
  42   20:10   0.00   18.0    62    0.6   117     1.4   752.2    0.00 
  42   20:20   0.00   14.8    69    0.6    18     1.7   752.2    0.00 
  42   20:30   0.00   12.6    71    0.8   311     2.1   752.2    0.00 
  42   20:40   0.00   13.6    70    0.2   347     1.0   752.3    0.00 
  42   20:50   0.00   11.4    74    0.5    41     1.7   752.3    0.00 
  42   21:00   0.00    8.3    73    0.9    13     2.3   752.3    0.00 
  42   21:10   0.00    8.0    78    0.5    67     2.2   752.4    0.00 
  42   21:20   0.00    6.9    78    0.2    95     0.9   752.4    0.00 

Return to Hidden Valley, Valles Caldera graphs page.


Western Regional Climate Center,wrcc@dri.edu